createdAt,value
2023-09-13T00:00:49.529Z,6.03
2023-09-13T00:03:54.243Z,7.78
2023-09-13T00:06:58.904Z,8.32
2023-09-13T00:10:03.118Z,7.88
2023-09-13T00:13:08.507Z,5.90
2023-09-13T00:16:12.953Z,5.97
2023-09-13T00:19:17.750Z,6.45
2023-09-13T00:22:22.127Z,5.93
2023-09-13T00:25:26.229Z,5.85
2023-09-13T00:28:30.390Z,5.90
2023-09-13T00:31:34.631Z,5.60
2023-09-13T00:34:38.917Z,5.60
2023-09-13T00:37:43.142Z,5.55
2023-09-13T00:40:47.485Z,5.45
2023-09-13T00:43:51.714Z,6.22
2023-09-13T00:46:56.126Z,5.80
2023-09-13T00:50:00.524Z,5.90
2023-09-13T00:53:05.427Z,5.65
2023-09-13T00:56:12.573Z,5.78
2023-09-13T00:59:16.991Z,5.93
2023-09-13T01:02:21.494Z,5.97
2023-09-13T01:05:26.532Z,6.13
2023-09-13T01:08:30.604Z,6.20
2023-09-13T01:11:34.734Z,5.85
2023-09-13T01:14:38.818Z,5.70
2023-09-13T01:17:59.811Z,6.35
2023-09-13T01:21:37.440Z,5.72
2023-09-13T01:25:19.254Z,5.80
2023-09-13T01:28:48.619Z,5.57
2023-09-13T01:31:54.394Z,5.93
2023-09-13T01:34:59.103Z,5.72
2023-09-13T01:38:03.302Z,5.65
2023-09-13T01:41:30.693Z,5.75
2023-09-13T01:44:37.093Z,5.05
2023-09-13T01:47:43.957Z,4.93
2023-09-13T01:50:49.192Z,4.90
2023-09-13T01:53:55.635Z,4.35
2023-09-13T01:56:59.890Z,4.30
2023-09-13T02:00:07.613Z,4.43
2023-09-13T02:03:11.404Z,5.10
2023-09-13T02:06:15.594Z,4.35
2023-09-13T02:09:19.546Z,4.18
2023-09-13T02:12:23.653Z,4.10
2023-09-13T02:15:28.515Z,3.83
2023-09-13T02:18:32.650Z,4.10
2023-09-13T02:21:36.836Z,3.90
2023-09-13T02:24:41.073Z,3.50
2023-09-13T02:27:45.464Z,3.58
2023-09-13T02:30:49.750Z,3.40
2023-09-13T02:33:55.414Z,3.70
2023-09-13T02:36:59.757Z,3.75
2023-09-13T02:40:06.998Z,3.47
2023-09-13T02:47:15.253Z,3.83
2023-09-13T02:50:18.832Z,3.80
2023-09-13T02:53:22.891Z,3.88
2023-09-13T02:56:26.254Z,3.75
2023-09-13T02:59:32.736Z,4.00
2023-09-13T03:02:36.988Z,4.10
2023-09-13T03:05:41.272Z,4.32
2023-09-13T03:08:45.364Z,5.22
2023-09-13T03:11:49.683Z,4.60
2023-09-13T03:14:56.202Z,4.50
2023-09-13T03:18:01.829Z,4.65
2023-09-13T03:21:10.686Z,4.40
2023-09-13T03:24:15.037Z,4.53
2023-09-13T03:27:19.120Z,4.45
2023-09-13T03:30:23.288Z,4.57
2023-09-13T03:33:27.572Z,4.35
2023-09-13T03:36:31.807Z,4.28
2023-09-13T03:39:36.093Z,4.65
2023-09-13T03:42:40.201Z,4.40
2023-09-13T03:45:44.498Z,4.43
2023-09-13T03:48:50.183Z,4.50
2023-09-13T03:51:55.222Z,4.72
2023-09-13T03:54:59.626Z,4.60
2023-09-13T03:58:04.268Z,4.97
2023-09-13T04:01:08.567Z,4.63
2023-09-13T04:04:12.865Z,5.35
2023-09-13T04:07:17.851Z,5.03
2023-09-13T04:10:22.243Z,5.47
2023-09-13T04:13:27.148Z,5.25
2023-09-13T04:16:31.402Z,5.47
2023-09-13T04:19:35.537Z,5.80
2023-09-13T04:22:40.022Z,5.53
2023-09-13T04:25:44.130Z,5.55
2023-09-13T04:28:48.250Z,6.05
2023-09-13T04:31:52.396Z,5.80
2023-09-13T04:34:56.846Z,5.72
2023-09-13T04:38:00.964Z,6.47
2023-09-13T04:41:06.511Z,6.20
2023-09-13T04:44:10.582Z,6.55
2023-09-13T04:47:14.568Z,6.15
2023-09-13T04:50:18.646Z,5.90
2023-09-13T04:53:23.352Z,6.28
2023-09-13T04:56:27.252Z,5.70
2023-09-13T04:59:49.521Z,6.10
2023-09-13T05:02:53.466Z,5.47
2023-09-13T05:05:44.748Z,5.95
2023-09-13T05:08:50.921Z,5.78
2023-09-13T05:11:55.274Z,6.40
2023-09-13T05:14:59.907Z,5.93
2023-09-13T05:18:04.364Z,5.90
2023-09-13T05:21:08.445Z,5.97
2023-09-13T05:24:12.607Z,6.30
2023-09-13T05:27:16.572Z,6.35
2023-09-13T05:30:20.739Z,6.05
2023-09-13T05:33:27.532Z,6.78
2023-09-13T05:36:31.653Z,6.57
2023-09-13T05:39:35.757Z,6.25
2023-09-13T05:42:39.921Z,6.90
2023-09-13T05:45:44.306Z,7.13
2023-09-13T05:48:48.514Z,6.55
2023-09-13T05:51:52.715Z,6.38
2023-09-13T05:54:56.777Z,5.50
2023-09-13T05:58:00.846Z,5.47
2023-09-13T06:01:06.861Z,5.50
2023-09-13T06:04:11.215Z,5.25
2023-09-13T06:07:15.602Z,3.58
2023-09-13T06:10:19.742Z,4.10
2023-09-13T06:13:24.093Z,4.72
2023-09-13T06:16:30.232Z,3.58
2023-09-13T06:19:35.030Z,3.90
2023-09-13T06:22:39.248Z,4.20
2023-09-13T06:25:43.805Z,3.88
2023-09-13T06:28:47.665Z,3.78
2023-09-13T06:32:05.202Z,3.50
2023-09-13T06:35:15.667Z,3.40
2023-09-13T06:38:21.043Z,3.47
2023-09-13T06:41:26.378Z,3.50
2023-09-13T06:44:45.416Z,2.75
2023-09-13T06:47:51.513Z,3.20
2023-09-13T06:54:05.725Z,3.03
2023-09-13T06:57:13.734Z,3.45
2023-09-13T07:00:27.236Z,3.10
2023-09-13T07:03:40.056Z,2.75
2023-09-13T07:06:45.127Z,3.00
2023-09-13T07:09:49.327Z,2.50
2023-09-13T07:12:53.833Z,2.25
2023-09-13T07:15:58.260Z,2.25
2023-09-13T07:19:04.632Z,2.05
2023-09-13T07:22:08.760Z,1.88
2023-09-13T07:25:13.957Z,1.90
2023-09-13T07:28:18.315Z,1.80
2023-09-13T07:31:22.508Z,2.05
2023-09-13T07:34:31.977Z,2.65
2023-09-13T07:37:36.820Z,1.92
2023-09-13T07:40:41.342Z,1.60
2023-09-13T07:43:45.272Z,1.88
2023-09-13T07:46:49.643Z,1.70
2023-09-13T07:49:53.950Z,1.83
2023-09-13T07:53:05.219Z,1.63
2023-09-13T07:56:11.299Z,1.55
2023-09-13T07:59:17.149Z,1.70
2023-09-13T08:02:21.281Z,1.70
2023-09-13T08:05:25.120Z,1.30
2023-09-13T08:08:31.811Z,1.60
2023-09-13T08:11:36.068Z,1.77
2023-09-13T08:14:41.124Z,1.83
2023-09-13T08:17:46.236Z,1.63
2023-09-13T08:20:51.461Z,1.48
2023-09-13T08:23:55.276Z,1.38
2023-09-13T08:26:59.480Z,1.70
2023-09-13T08:30:04.990Z,1.65
2023-09-13T08:33:11.643Z,1.60
2023-09-13T08:36:18.342Z,1.30
2023-09-13T08:39:25.997Z,1.42
2023-09-13T08:42:30.906Z,1.60
2023-09-13T08:45:35.941Z,1.40
2023-09-13T08:48:41.671Z,1.40
2023-09-13T08:51:46.830Z,1.50
2023-09-13T08:54:59.211Z,1.55
2023-09-13T08:58:04.144Z,1.60
2023-09-13T09:01:11.090Z,1.77
2023-09-13T09:04:17.339Z,1.33
2023-09-13T09:07:22.796Z,1.40
2023-09-13T09:10:27.029Z,1.40
2023-09-13T09:13:32.337Z,1.40
2023-09-13T09:16:37.155Z,1.50
2023-09-13T09:19:42.147Z,1.70
2023-09-13T09:22:46.614Z,1.30
2023-09-13T09:25:51.800Z,1.73
2023-09-13T09:28:56.086Z,1.88
2023-09-13T09:32:01.173Z,1.77
2023-09-13T09:35:06.385Z,1.70
2023-09-13T09:38:24.140Z,1.95
2023-09-13T09:41:38.266Z,1.50
2023-09-13T09:44:42.442Z,1.50
2023-09-13T09:47:47.116Z,1.50
2023-09-13T09:50:55.085Z,1.48
2023-09-13T09:53:59.255Z,1.50
2023-09-13T09:57:03.815Z,1.60
2023-09-13T10:00:09.827Z,1.48
2023-09-13T10:03:19.028Z,1.80
2023-09-13T10:06:23.403Z,2.03
2023-09-13T10:09:41.440Z,1.92
2023-09-13T10:12:52.045Z,1.73
2023-09-13T10:15:56.422Z,1.80
2023-09-13T10:19:04.558Z,1.80
2023-09-13T10:22:09.790Z,2.00
2023-09-13T10:25:17.156Z,1.90
2023-09-13T10:28:23.594Z,1.95
2023-09-13T10:31:36.273Z,2.00
2023-09-13T10:34:49.436Z,2.47
2023-09-13T10:38:14.683Z,2.13
2023-09-13T10:41:20.118Z,1.92
2023-09-13T10:44:24.769Z,1.73
2023-09-13T10:47:30.197Z,1.70
2023-09-13T10:50:34.734Z,1.73
2023-09-13T10:53:38.886Z,1.75
2023-09-13T10:56:43.606Z,1.60
2023-09-13T10:59:49.244Z,1.80
2023-09-13T11:02:53.596Z,1.60
2023-09-13T11:05:58.919Z,1.80
2023-09-13T11:09:14.441Z,1.77
2023-09-13T11:12:19.179Z,1.85
2023-09-13T11:15:25.332Z,1.67
2023-09-13T11:18:29.635Z,1.90
2023-09-13T11:21:55.839Z,1.90
2023-09-13T11:25:24.331Z,2.13
2023-09-13T11:28:45.426Z,1.95
2023-09-13T11:32:07.023Z,2.00
2023-09-13T11:35:11.790Z,1.90
2023-09-13T11:38:18.066Z,1.85
2023-09-13T11:41:22.323Z,1.80
2023-09-13T11:44:33.454Z,1.70
2023-09-13T11:47:39.106Z,1.80
2023-09-13T11:50:50.623Z,1.80
2023-09-13T11:53:56.160Z,1.60
2023-09-13T11:57:22.458Z,1.90
2023-09-13T12:00:31.965Z,1.98
2023-09-13T12:06:54.110Z,2.33
2023-09-13T12:10:00.302Z,1.77
2023-09-13T12:13:16.957Z,1.90
2023-09-13T12:16:31.220Z,1.75
2023-09-13T12:19:37.362Z,1.85
2023-09-13T12:22:42.209Z,2.28
2023-09-13T12:25:47.446Z,1.90
2023-09-13T12:28:53.957Z,1.80
2023-09-13T12:31:59.927Z,1.52
2023-09-13T12:35:04.651Z,1.70
2023-09-13T12:38:09.195Z,1.90
2023-09-13T12:41:17.922Z,1.80
2023-09-13T12:44:22.050Z,1.88
2023-09-13T12:47:26.405Z,2.00
2023-09-13T12:50:34.478Z,2.10
2023-09-13T12:53:39.885Z,1.60
2023-09-13T12:56:44.255Z,1.90
2023-09-13T12:59:51.552Z,1.95
2023-09-13T13:02:56.013Z,2.00
2023-09-13T13:06:02.378Z,2.10
2023-09-13T13:09:10.710Z,2.00
2023-09-13T13:12:16.366Z,2.00
2023-09-13T13:15:20.627Z,1.90
2023-09-13T13:18:25.107Z,1.80
2023-09-13T13:21:38.724Z,2.00
2023-09-13T13:24:45.422Z,1.80
2023-09-13T13:27:49.526Z,1.65
2023-09-13T13:30:57.337Z,1.90
2023-09-13T13:34:01.505Z,1.70
2023-09-13T13:37:05.373Z,1.80
2023-09-13T13:40:09.957Z,1.70
2023-09-13T13:43:14.146Z,2.17
2023-09-13T13:46:18.681Z,1.88
2023-09-13T13:49:22.525Z,2.00
2023-09-13T13:52:26.747Z,1.80
2023-09-13T13:55:30.976Z,1.95
2023-09-13T13:58:34.974Z,1.90
2023-09-13T14:01:39.075Z,1.92
2023-09-13T14:04:43.416Z,2.30
2023-09-13T14:07:47.331Z,2.40
2023-09-13T14:10:54.128Z,2.20
2023-09-13T14:13:58.334Z,2.22
2023-09-13T14:17:04.858Z,2.30
2023-09-13T14:20:09.649Z,2.17
2023-09-13T14:23:15.077Z,2.22
2023-09-13T14:26:19.135Z,2.00
2023-09-13T14:29:23.538Z,2.20
2023-09-13T14:32:28.089Z,2.08
2023-09-13T14:35:32.629Z,1.98
2023-09-13T14:38:36.897Z,2.60
2023-09-13T14:41:42.152Z,3.00
2023-09-13T14:44:46.300Z,3.20
2023-09-13T14:47:50.609Z,2.88
2023-09-13T14:50:54.782Z,2.65
2023-09-13T14:53:58.895Z,2.65
2023-09-13T14:57:03.406Z,2.15
2023-09-13T15:00:09.675Z,2.08
2023-09-13T15:03:14.142Z,2.40
2023-09-13T15:06:19.486Z,2.20
2023-09-13T15:09:23.933Z,2.40
2023-09-13T15:12:29.783Z,2.15
2023-09-13T15:15:33.848Z,2.40
2023-09-13T15:18:38.244Z,2.45
2023-09-13T15:21:42.674Z,2.50
2023-09-13T15:24:46.790Z,2.45
2023-09-13T15:27:50.574Z,2.30
2023-09-13T15:30:54.990Z,2.50
2023-09-13T15:33:59.620Z,1.90
2023-09-13T15:37:04.453Z,2.17
2023-09-13T15:40:09.365Z,2.05
2023-09-13T15:43:13.583Z,2.53
2023-09-13T15:46:18.020Z,2.50
2023-09-13T15:49:25.230Z,2.08
2023-09-13T15:52:29.862Z,2.08
2023-09-13T15:55:37.465Z,2.70
2023-09-13T15:58:44.435Z,2.20
2023-09-13T16:01:49.057Z,2.47
2023-09-13T16:04:53.146Z,2.20
2023-09-13T16:07:57.059Z,2.30
2023-09-13T16:11:01.739Z,2.33
2023-09-13T16:14:06.101Z,2.70
2023-09-13T16:17:10.452Z,2.30
2023-09-13T16:20:14.674Z,2.13
2023-09-13T16:23:18.887Z,2.20
2023-09-13T16:26:23.143Z,2.63
2023-09-13T16:29:27.673Z,2.53
2023-09-13T16:32:33.692Z,2.42
2023-09-13T16:35:37.861Z,2.60
2023-09-13T16:38:41.665Z,2.20
2023-09-13T16:41:46.508Z,2.70
2023-09-13T16:44:50.732Z,2.58
2023-09-13T16:47:54.793Z,2.30
2023-09-13T16:50:59.111Z,2.50
2023-09-13T16:54:05.486Z,2.70
2023-09-13T16:57:09.649Z,2.75
2023-09-13T17:00:14.121Z,4.53
2023-09-13T17:03:18.652Z,3.40
2023-09-13T17:06:23.044Z,3.90
2023-09-13T17:09:27.461Z,3.97
2023-09-13T17:12:31.424Z,4.00
2023-09-13T17:15:35.738Z,3.47
2023-09-13T17:18:40.104Z,3.80
2023-09-13T17:21:44.021Z,3.75
2023-09-13T17:24:48.185Z,3.60
2023-09-13T17:27:52.277Z,3.75
2023-09-13T17:30:56.738Z,3.95
2023-09-13T17:34:01.112Z,4.10
2023-09-13T17:37:05.238Z,4.13
2023-09-13T17:40:09.839Z,3.72
2023-09-13T17:43:13.923Z,3.75
2023-09-13T17:46:18.297Z,4.05
2023-09-13T17:49:22.960Z,3.80
2023-09-13T17:52:26.981Z,3.90
2023-09-13T17:55:32.333Z,4.05
2023-09-13T17:58:36.594Z,4.18
2023-09-13T18:01:45.314Z,3.83
2023-09-13T18:04:51.494Z,4.43
2023-09-13T18:07:59.270Z,4.47
2023-09-13T18:11:04.533Z,4.60
2023-09-13T18:14:10.131Z,4.82
2023-09-13T18:17:14.141Z,5.35
2023-09-13T18:20:18.227Z,5.60
2023-09-13T18:23:22.359Z,6.45
2023-09-13T18:26:26.622Z,6.70
2023-09-13T18:29:31.025Z,6.90
2023-09-13T18:32:34.932Z,7.95
2023-09-13T18:35:38.829Z,8.13
2023-09-13T18:38:43.547Z,8.48
2023-09-13T18:41:48.764Z,8.20
2023-09-13T18:44:52.993Z,8.88
2023-09-13T18:47:57.203Z,8.73
2023-09-13T18:51:04.678Z,8.43
2023-09-13T18:54:08.883Z,8.23
2023-09-13T18:57:13.295Z,7.75
2023-09-13T19:00:17.747Z,7.28
2023-09-13T19:03:21.867Z,6.22
2023-09-13T19:06:26.265Z,6.80
2023-09-13T19:09:30.094Z,6.25
2023-09-13T19:12:34.318Z,5.53
2023-09-13T19:15:38.510Z,5.95
2023-09-13T19:18:44.392Z,5.68
2023-09-13T19:21:49.085Z,5.32
2023-09-13T19:24:57.404Z,4.82
2023-09-13T19:28:02.125Z,4.72
2023-09-13T19:31:06.580Z,4.63
2023-09-13T19:34:10.801Z,4.40
2023-09-13T19:37:15.669Z,3.90
2023-09-13T19:40:20.673Z,2.90
2023-09-13T19:43:26.362Z,2.00
2023-09-13T19:46:30.356Z,1.60
2023-09-13T19:49:34.383Z,1.60
2023-09-13T19:52:38.780Z,1.65
2023-09-13T19:55:43.170Z,2.08
2023-09-13T19:58:48.945Z,1.38
2023-09-13T20:01:53.593Z,1.10
2023-09-13T20:04:57.569Z,1.40
2023-09-13T20:08:01.543Z,1.35
2023-09-13T20:11:05.412Z,1.48
2023-09-13T20:14:09.566Z,1.60
2023-09-13T20:17:13.815Z,2.40
2023-09-13T20:20:17.517Z,2.97
2023-09-13T20:23:21.576Z,3.38
2023-09-13T20:26:25.704Z,3.20
2023-09-13T20:29:30.588Z,3.28
2023-09-13T20:32:35.027Z,3.00
2023-09-13T20:35:39.175Z,2.50
2023-09-13T20:38:43.671Z,3.05
2023-09-13T20:41:48.155Z,2.47
2023-09-13T20:44:52.409Z,2.53
2023-09-13T20:47:56.717Z,2.58
2023-09-13T20:51:04.717Z,2.50
2023-09-13T20:54:08.968Z,2.20
2023-09-13T20:57:13.244Z,2.10
2023-09-13T21:00:17.529Z,1.73
2023-09-13T21:03:21.855Z,2.10
2023-09-13T21:06:26.021Z,1.80
2023-09-13T21:09:30.047Z,1.70
2023-09-13T21:12:34.235Z,1.90
2023-09-13T21:15:38.414Z,1.67
2023-09-13T21:18:43.112Z,1.60
2023-09-13T21:21:47.343Z,1.80
2023-09-13T21:24:51.872Z,2.13
2023-09-13T21:27:55.821Z,2.55
2023-09-13T21:30:59.985Z,2.70
2023-09-13T21:34:04.526Z,2.83
2023-09-13T21:37:08.636Z,3.00
2023-09-13T21:40:15.449Z,3.35
2023-09-13T21:43:20.241Z,3.08
2023-09-13T21:46:24.381Z,2.80
2023-09-13T21:49:28.467Z,2.90
2023-09-13T21:52:32.481Z,2.60
2023-09-13T21:55:39.362Z,1.75
2023-09-13T21:58:43.788Z,1.40
2023-09-13T22:01:48.090Z,1.27
2023-09-13T22:04:52.046Z,1.20
2023-09-13T22:07:56.163Z,1.48
2023-09-13T22:11:01.665Z,1.10
2023-09-13T22:14:05.925Z,1.30
2023-09-13T22:17:09.987Z,1.40
2023-09-13T22:20:14.368Z,1.60
2023-09-13T22:23:20.065Z,1.55
2023-09-13T22:26:24.202Z,1.60
2023-09-13T22:29:28.416Z,1.40
2023-09-13T22:32:34.483Z,1.58
2023-09-13T22:35:38.882Z,1.50
2023-09-13T22:38:51.320Z,1.50
2023-09-13T22:42:05.442Z,1.33
2023-09-13T22:45:09.632Z,1.52
2023-09-13T22:48:13.305Z,1.58
2023-09-13T22:51:17.728Z,1.50
2023-09-13T22:54:21.929Z,1.80
2023-09-13T22:57:26.302Z,1.70
2023-09-13T23:00:33.792Z,1.95
2023-09-13T23:03:45.433Z,1.70
2023-09-13T23:06:50.993Z,1.67
2023-09-13T23:09:55.035Z,1.70
2023-09-13T23:13:00.779Z,1.70
2023-09-13T23:16:06.893Z,1.83
2023-09-13T23:19:12.708Z,1.90
2023-09-13T23:22:16.920Z,1.92
2023-09-13T23:25:21.080Z,1.83
2023-09-13T23:28:25.124Z,1.90
2023-09-13T23:31:34.973Z,1.88
2023-09-13T23:34:41.213Z,2.35
2023-09-13T23:37:45.471Z,1.90
2023-09-13T23:40:49.196Z,2.00
2023-09-13T23:43:53.168Z,2.10
2023-09-13T23:46:57.220Z,2.20
2023-09-13T23:50:01.670Z,2.00
2023-09-13T23:53:06.059Z,1.83
2023-09-13T23:56:10.421Z,1.88
2023-09-13T23:59:17.855Z,2.10
